sensor_id;sensor_type;location;lat;lon;timestamp;P1;durP1;ratioP1;P2;durP2;ratioP2
68224;SDS011;57497;43.322;21.932;2023-11-19T00:00:37;9.7;;;5;;
68224;SDS011;57497;43.322;21.932;2023-11-19T00:05:36;4.1;;;2.9;;
68224;SDS011;57497;43.322;21.932;2023-11-19T00:10:33;8.6;;;4.1;;
68224;SDS011;57497;43.322;21.932;2023-11-19T00:15:33;7;;;3.5;;
68224;SDS011;57497;43.322;21.932;2023-11-19T00:20:33;6.3;;;5.1;;
68224;SDS011;57497;43.322;21.932;2023-11-19T00:25:33;4.3;;;3.2;;
68224;SDS011;57497;43.322;21.932;2023-11-19T00:30:33;13.9;;;4.4;;
68224;SDS011;57497;43.322;21.932;2023-11-19T00:35:34;4.7;;;3.4;;
68224;SDS011;57497;43.322;21.932;2023-11-19T00:40:33;22.8;;;4.6;;
68224;SDS011;57497;43.322;21.932;2023-11-19T00:45:33;4.9;;;3.9;;
68224;SDS011;57497;43.322;21.932;2023-11-19T00:50:33;8.9;;;5.2;;
68224;SDS011;57497;43.322;21.932;2023-11-19T00:55:34;6.1;;;4.9;;
68224;SDS011;57497;43.322;21.932;2023-11-19T01:00:35;8.9;;;5.6;;
68224;SDS011;57497;43.322;21.932;2023-11-19T01:05:33;8.4;;;5.1;;
68224;SDS011;57497;43.322;21.932;2023-11-19T01:10:33;7;;;4.8;;
68224;SDS011;57497;43.322;21.932;2023-11-19T01:15:33;8.1;;;4.5;;
68224;SDS011;57497;43.322;21.932;2023-11-19T01:20:33;8;;;3.8;;
68224;SDS011;57497;43.322;21.932;2023-11-19T01:25:33;7;;;5.1;;
68224;SDS011;57497;43.322;21.932;2023-11-19T01:30:33;8.6;;;5.9;;
68224;SDS011;57497;43.322;21.932;2023-11-19T01:35:33;8.4;;;5.2;;
68224;SDS011;57497;43.322;21.932;2023-11-19T01:40:33;7;;;4.9;;
68224;SDS011;57497;43.322;21.932;2023-11-19T01:45:33;9.1;;;5.1;;
68224;SDS011;57497;43.322;21.932;2023-11-19T01:50:33;7.5;;;5.6;;
68224;SDS011;57497;43.322;21.932;2023-11-19T01:55:33;7.9;;;4.6;;
68224;SDS011;57497;43.322;21.932;2023-11-19T02:00:35;4.4;;;3.5;;
68224;SDS011;57497;43.322;21.932;2023-11-19T02:05:33;7.4;;;4.6;;
68224;SDS011;57497;43.322;21.932;2023-11-19T02:10:33;14.8;;;5.7;;
68224;SDS011;57497;43.322;21.932;2023-11-19T02:15:33;11.1;;;5.9;;
68224;SDS011;57497;43.322;21.932;2023-11-19T02:20:34;7.1;;;4.1;;
68224;SDS011;57497;43.322;21.932;2023-11-19T02:25:33;7.5;;;5.7;;
68224;SDS011;57497;43.322;21.932;2023-11-19T02:30:33;5.7;;;5.1;;
68224;SDS011;57497;43.322;21.932;2023-11-19T02:35:33;7.4;;;4.9;;
68224;SDS011;57497;43.322;21.932;2023-11-19T02:40:33;6.7;;;4.8;;
68224;SDS011;57497;43.322;21.932;2023-11-19T02:45:33;6.3;;;4.7;;
68224;SDS011;57497;43.322;21.932;2023-11-19T02:50:33;10.7;;;7.2;;
68224;SDS011;57497;43.322;21.932;2023-11-19T02:55:34;9.1;;;5.9;;
68224;SDS011;57497;43.322;21.932;2023-11-19T03:00:35;9.6;;;6.3;;
68224;SDS011;57497;43.322;21.932;2023-11-19T03:05:33;8.4;;;5.8;;
68224;SDS011;57497;43.322;21.932;2023-11-19T03:10:33;7.9;;;5.1;;
68224;SDS011;57497;43.322;21.932;2023-11-19T03:15:33;6.8;;;5.4;;
68224;SDS011;57497;43.322;21.932;2023-11-19T03:20:34;8.6;;;6.1;;
68224;SDS011;57497;43.322;21.932;2023-11-19T03:25:33;7.4;;;5.4;;
68224;SDS011;57497;43.322;21.932;2023-11-19T03:30:33;12;;;7.6;;
68224;SDS011;57497;43.322;21.932;2023-11-19T03:35:33;8.4;;;5.2;;
68224;SDS011;57497;43.322;21.932;2023-11-19T03:40:33;9.6;;;6;;
68224;SDS011;57497;43.322;21.932;2023-11-19T03:45:33;6.8;;;5.1;;
68224;SDS011;57497;43.322;21.932;2023-11-19T03:50:33;14.3;;;6.3;;
68224;SDS011;57497;43.322;21.932;2023-11-19T03:55:33;18.2;;;10.4;;
68224;SDS011;57497;43.322;21.932;2023-11-19T04:00:35;9.4;;;6;;
68224;SDS011;57497;43.322;21.932;2023-11-19T04:05:33;6.5;;;5.3;;
68224;SDS011;57497;43.322;21.932;2023-11-19T04:10:33;7.4;;;5.1;;
68224;SDS011;57497;43.322;21.932;2023-11-19T04:15:33;9.6;;;4.7;;
68224;SDS011;57497;43.322;21.932;2023-11-19T04:20:33;10.7;;;5.6;;
68224;SDS011;57497;43.322;21.932;2023-11-19T04:25:33;7.2;;;4.7;;
68224;SDS011;57497;43.322;21.932;2023-11-19T04:30:34;10.9;;;6.4;;
68224;SDS011;57497;43.322;21.932;2023-11-19T04:35:33;5.4;;;3.4;;
68224;SDS011;57497;43.322;21.932;2023-11-19T04:40:33;7.2;;;4.6;;
68224;SDS011;57497;43.322;21.932;2023-11-19T04:45:33;7.8;;;5.9;;
68224;SDS011;57497;43.322;21.932;2023-11-19T04:50:33;7.2;;;4;;
68224;SDS011;57497;43.322;21.932;2023-11-19T04:55:33;8.3;;;5.8;;
68224;SDS011;57497;43.322;21.932;2023-11-19T05:00:35;9.6;;;6.6;;
68224;SDS011;57497;43.322;21.932;2023-11-19T05:05:33;10.3;;;7.5;;
68224;SDS011;57497;43.322;21.932;2023-11-19T05:10:33;8.3;;;6.7;;
68224;SDS011;57497;43.322;21.932;2023-11-19T05:15:33;11;;;6.9;;
68224;SDS011;57497;43.322;21.932;2023-11-19T05:20:33;10.8;;;7;;
68224;SDS011;57497;43.322;21.932;2023-11-19T05:25:33;12.6;;;6.7;;
68224;SDS011;57497;43.322;21.932;2023-11-19T05:30:34;8.1;;;6.6;;
68224;SDS011;57497;43.322;21.932;2023-11-19T05:35:34;6;;;4.3;;
68224;SDS011;57497;43.322;21.932;2023-11-19T05:40:33;6.6;;;5.1;;
68224;SDS011;57497;43.322;21.932;2023-11-19T05:45:33;10.4;;;6.5;;
68224;SDS011;57497;43.322;21.932;2023-11-19T05:50:33;8.9;;;6;;
68224;SDS011;57497;43.322;21.932;2023-11-19T05:55:33;10.3;;;5.8;;
68224;SDS011;57497;43.322;21.932;2023-11-19T06:00:35;5.6;;;4.2;;
68224;SDS011;57497;43.322;21.932;2023-11-19T06:05:33;8.4;;;6.9;;
68224;SDS011;57497;43.322;21.932;2023-11-19T06:10:34;9.5;;;6.5;;
68224;SDS011;57497;43.322;21.932;2023-11-19T06:15:33;11.9;;;7.7;;
68224;SDS011;57497;43.322;21.932;2023-11-19T06:20:33;12.2;;;7;;
68224;SDS011;57497;43.322;21.932;2023-11-19T06:25:33;12.3;;;6.9;;
68224;SDS011;57497;43.322;21.932;2023-11-19T06:30:33;9.3;;;6.9;;
68224;SDS011;57497;43.322;21.932;2023-11-19T06:35:34;12.7;;;9;;
68224;SDS011;57497;43.322;21.932;2023-11-19T06:40:33;18;;;7.8;;
68224;SDS011;57497;43.322;21.932;2023-11-19T06:45:33;11.7;;;8.3;;
68224;SDS011;57497;43.322;21.932;2023-11-19T06:50:33;7.7;;;6.2;;
68224;SDS011;57497;43.322;21.932;2023-11-19T06:55:33;10.4;;;7.1;;
68224;SDS011;57497;43.322;21.932;2023-11-19T07:00:35;10.4;;;6.3;;
68224;SDS011;57497;43.322;21.932;2023-11-19T07:05:35;6.8;;;6.1;;
68224;SDS011;57497;43.322;21.932;2023-11-19T07:10:33;8.1;;;6.1;;
68224;SDS011;57497;43.322;21.932;2023-11-19T07:15:33;18.5;;;6.9;;
68224;SDS011;57497;43.322;21.932;2023-11-19T07:20:33;5.1;;;4;;
68224;SDS011;57497;43.322;21.932;2023-11-19T07:25:34;8.8;;;6.3;;
68224;SDS011;57497;43.322;21.932;2023-11-19T07:30:33;18.9;;;8.9;;
68224;SDS011;57497;43.322;21.932;2023-11-19T07:35:33;18.5;;;5.4;;
68224;SDS011;57497;43.322;21.932;2023-11-19T07:40:33;6.1;;;4.1;;
68224;SDS011;57497;43.322;21.932;2023-11-19T07:45:33;11;;;6;;
68224;SDS011;57497;43.322;21.932;2023-11-19T07:50:34;10.5;;;5.8;;
68224;SDS011;57497;43.322;21.932;2023-11-19T07:55:33;12.4;;;6.6;;
68224;SDS011;57497;43.322;21.932;2023-11-19T08:00:35;10;;;6.2;;
68224;SDS011;57497;43.322;21.932;2023-11-19T08:05:33;10.2;;;7.2;;
68224;SDS011;57497;43.322;21.932;2023-11-19T08:10:33;11.3;;;6.4;;
68224;SDS011;57497;43.322;21.932;2023-11-19T08:15:33;7.6;;;4.7;;
68224;SDS011;57497;43.322;21.932;2023-11-19T08:20:33;6.8;;;5.5;;
68224;SDS011;57497;43.322;21.932;2023-11-19T08:25:33;10.4;;;7.8;;
68224;SDS011;57497;43.322;21.932;2023-11-19T08:30:33;8.3;;;6.9;;
68224;SDS011;57497;43.322;21.932;2023-11-19T08:35:33;10.1;;;6.2;;
68224;SDS011;57497;43.322;21.932;2023-11-19T08:40:35;9.1;;;6.3;;
68224;SDS011;57497;43.322;21.932;2023-11-19T08:45:33;4.7;;;3.7;;
68224;SDS011;57497;43.322;21.932;2023-11-19T08:50:33;12;;;7.2;;
68224;SDS011;57497;43.322;21.932;2023-11-19T08:55:33;5.8;;;3.1;;
68224;SDS011;57497;43.322;21.932;2023-11-19T09:00:35;9.2;;;6.9;;
68224;SDS011;57497;43.322;21.932;2023-11-19T09:05:33;10.1;;;4.7;;
68224;SDS011;57497;43.322;21.932;2023-11-19T09:10:33;11;;;7.5;;
68224;SDS011;57497;43.322;21.932;2023-11-19T09:15:33;10.7;;;5.3;;
68224;SDS011;57497;43.322;21.932;2023-11-19T09:20:33;6.8;;;5.7;;
68224;SDS011;57497;43.322;21.932;2023-11-19T09:25:34;14;;;8;;
68224;SDS011;57497;43.322;21.932;2023-11-19T09:30:33;15.5;;;8;;
68224;SDS011;57497;43.322;21.932;2023-11-19T09:35:33;4;;;3.6;;
68224;SDS011;57497;43.322;21.932;2023-11-19T09:40:33;12.5;;;9.2;;
68224;SDS011;57497;43.322;21.932;2023-11-19T09:45:36;7.7;;;4.3;;
68224;SDS011;57497;43.322;21.932;2023-11-19T09:50:33;3.6;;;2.8;;
68224;SDS011;57497;43.322;21.932;2023-11-19T09:55:33;8.3;;;5;;
68224;SDS011;57497;43.322;21.932;2023-11-19T10:00:35;12.6;;;7.2;;
68224;SDS011;57497;43.322;21.932;2023-11-19T10:05:33;9.6;;;6.5;;
68224;SDS011;57497;43.322;21.932;2023-11-19T10:10:33;6;;;4.5;;
68224;SDS011;57497;43.322;21.932;2023-11-19T10:15:35;10.1;;;5.6;;
68224;SDS011;57497;43.322;21.932;2023-11-19T10:20:35;7.4;;;5.6;;
68224;SDS011;57497;43.322;21.932;2023-11-19T10:25:33;9.1;;;5.7;;
68224;SDS011;57497;43.322;21.932;2023-11-19T10:30:33;9.6;;;5.5;;
68224;SDS011;57497;43.322;21.932;2023-11-19T10:35:33;6.3;;;4.6;;
68224;SDS011;57497;43.322;21.932;2023-11-19T10:40:37;7;;;5.3;;
68224;SDS011;57497;43.322;21.932;2023-11-19T10:45:33;10.9;;;7;;
68224;SDS011;57497;43.322;21.932;2023-11-19T10:50:33;10.4;;;6.5;;
68224;SDS011;57497;43.322;21.932;2023-11-19T10:55:34;6.3;;;5.6;;
68224;SDS011;57497;43.322;21.932;2023-11-19T11:00:37;9;;;6.2;;
68224;SDS011;57497;43.322;21.932;2023-11-19T11:05:34;11.4;;;9.2;;
68224;SDS011;57497;43.322;21.932;2023-11-19T11:10:35;12.5;;;7.4;;
68224;SDS011;57497;43.322;21.932;2023-11-19T11:15:33;9.3;;;6.6;;
68224;SDS011;57497;43.322;21.932;2023-11-19T11:20:33;12.6;;;8.2;;
68224;SDS011;57497;43.322;21.932;2023-11-19T11:25:35;9.4;;;6.9;;
68224;SDS011;57497;43.322;21.932;2023-11-19T11:30:38;6.8;;;6.1;;
68224;SDS011;57497;43.322;21.932;2023-11-19T11:35:36;8.4;;;5.6;;
68224;SDS011;57497;43.322;21.932;2023-11-19T11:40:33;14.3;;;7.5;;
68224;SDS011;57497;43.322;21.932;2023-11-19T11:45:35;8.5;;;6.8;;
68224;SDS011;57497;43.322;21.932;2023-11-19T11:50:33;11.3;;;6.3;;
68224;SDS011;57497;43.322;21.932;2023-11-19T11:55:34;12.1;;;9.1;;
68224;SDS011;57497;43.322;21.932;2023-11-19T12:00:37;7.9;;;6.8;;
68224;SDS011;57497;43.322;21.932;2023-11-19T12:05:33;8.6;;;7.6;;
68224;SDS011;57497;43.322;21.932;2023-11-19T12:10:36;7.9;;;6.4;;
68224;SDS011;57497;43.322;21.932;2023-11-19T12:15:33;7.2;;;6.5;;
68224;SDS011;57497;43.322;21.932;2023-11-19T12:20:33;17.8;;;10.9;;
68224;SDS011;57497;43.322;21.932;2023-11-19T12:25:33;11;;;6.5;;
68224;SDS011;57497;43.322;21.932;2023-11-19T12:30:33;10.1;;;8.7;;
68224;SDS011;57497;43.322;21.932;2023-11-19T12:35:34;6.5;;;5.3;;
68224;SDS011;57497;43.322;21.932;2023-11-19T12:40:33;5.8;;;4.6;;
68224;SDS011;57497;43.322;21.932;2023-11-19T12:45:34;7.7;;;6.2;;
68224;SDS011;57497;43.322;21.932;2023-11-19T12:51:05;8.4;;;7;;
68224;SDS011;57497;43.322;21.932;2023-11-19T12:55:33;12.8;;;10.1;;
68224;SDS011;57497;43.322;21.932;2023-11-19T13:00:34;11.6;;;9.5;;
68224;SDS011;57497;43.322;21.932;2023-11-19T13:05:33;12.1;;;6.8;;
68224;SDS011;57497;43.322;21.932;2023-11-19T13:10:33;13.2;;;8.3;;
68224;SDS011;57497;43.322;21.932;2023-11-19T13:15:33;11.1;;;10;;
68224;SDS011;57497;43.322;21.932;2023-11-19T13:20:34;8.5;;;5.5;;
68224;SDS011;57497;43.322;21.932;2023-11-19T13:25:33;13.4;;;6;;
68224;SDS011;57497;43.322;21.932;2023-11-19T13:30:33;5.2;;;4.4;;
68224;SDS011;57497;43.322;21.932;2023-11-19T13:35:33;8.2;;;5.9;;
68224;SDS011;57497;43.322;21.932;2023-11-19T13:40:34;9.3;;;6.2;;
68224;SDS011;57497;43.322;21.932;2023-11-19T13:45:33;10.9;;;7.4;;
68224;SDS011;57497;43.322;21.932;2023-11-19T13:50:33;22.8;;;13.9;;
68224;SDS011;57497;43.322;21.932;2023-11-19T13:55:33;13.7;;;10;;
68224;SDS011;57497;43.322;21.932;2023-11-19T14:00:35;13.1;;;9.7;;
68224;SDS011;57497;43.322;21.932;2023-11-19T14:05:34;14.1;;;8.2;;
68224;SDS011;57497;43.322;21.932;2023-11-19T14:10:33;13.1;;;8.4;;
68224;SDS011;57497;43.322;21.932;2023-11-19T14:15:33;19.9;;;11.3;;
68224;SDS011;57497;43.322;21.932;2023-11-19T14:20:33;20.4;;;12.3;;
68224;SDS011;57497;43.322;21.932;2023-11-19T14:25:34;16;;;10.8;;
68224;SDS011;57497;43.322;21.932;2023-11-19T14:30:33;13.5;;;9.1;;
68224;SDS011;57497;43.322;21.932;2023-11-19T14:35:33;24.4;;;17.3;;
68224;SDS011;57497;43.322;21.932;2023-11-19T14:40:33;16.3;;;10.8;;
68224;SDS011;57497;43.322;21.932;2023-11-19T14:45:33;37.8;;;26.9;;
68224;SDS011;57497;43.322;21.932;2023-11-19T14:50:33;36.9;;;24.3;;
68224;SDS011;57497;43.322;21.932;2023-11-19T14:55:33;17.5;;;12.3;;
68224;SDS011;57497;43.322;21.932;2023-11-19T15:00:35;16.9;;;10.3;;
68224;SDS011;57497;43.322;21.932;2023-11-19T15:05:33;17.5;;;12.9;;
68224;SDS011;57497;43.322;21.932;2023-11-19T15:10:33;29;;;18.8;;
68224;SDS011;57497;43.322;21.932;2023-11-19T15:15:33;17.3;;;11;;
68224;SDS011;57497;43.322;21.932;2023-11-19T15:20:34;14.8;;;9.3;;
68224;SDS011;57497;43.322;21.932;2023-11-19T15:25:33;19;;;10.4;;
68224;SDS011;57497;43.322;21.932;2023-11-19T15:30:33;21.9;;;10.1;;
68224;SDS011;57497;43.322;21.932;2023-11-19T15:35:33;49.1;;;29.5;;
68224;SDS011;57497;43.322;21.932;2023-11-19T15:40:33;34.5;;;21.4;;
68224;SDS011;57497;43.322;21.932;2023-11-19T15:45:34;37;;;23.4;;
68224;SDS011;57497;43.322;21.932;2023-11-19T15:50:33;50.2;;;31.5;;
68224;SDS011;57497;43.322;21.932;2023-11-19T15:55:33;50.3;;;28.9;;
68224;SDS011;57497;43.322;21.932;2023-11-19T16:00:34;71.9;;;36.6;;
68224;SDS011;57497;43.322;21.932;2023-11-19T16:05:33;66.7;;;37.5;;
68224;SDS011;57497;43.322;21.932;2023-11-19T16:10:33;59.2;;;37.4;;
68224;SDS011;57497;43.322;21.932;2023-11-19T16:15:33;70.4;;;37.1;;
68224;SDS011;57497;43.322;21.932;2023-11-19T16:20:34;79.8;;;38.1;;
68224;SDS011;57497;43.322;21.932;2023-11-19T16:25:33;65.1;;;33.1;;
68224;SDS011;57497;43.322;21.932;2023-11-19T16:30:33;92.1;;;44.2;;
68224;SDS011;57497;43.322;21.932;2023-11-19T16:35:33;99.8;;;49.9;;
68224;SDS011;57497;43.322;21.932;2023-11-19T16:40:33;108.2;;;51.3;;
68224;SDS011;57497;43.322;21.932;2023-11-19T16:45:33;204.9;;;81.4;;
68224;SDS011;57497;43.322;21.932;2023-11-19T16:50:33;222;;;119.7;;
68224;SDS011;57497;43.322;21.932;2023-11-19T16:55:33;230.4;;;107.4;;
68224;SDS011;57497;43.322;21.932;2023-11-19T17:00:35;231.9;;;117.7;;
68224;SDS011;57497;43.322;21.932;2023-11-19T17:05:33;235.9;;;107.9;;
68224;SDS011;57497;43.322;21.932;2023-11-19T17:10:33;207.6;;;105.3;;
68224;SDS011;57497;43.322;21.932;2023-11-19T17:15:33;204.7;;;96.2;;
68224;SDS011;57497;43.322;21.932;2023-11-19T17:20:33;148;;;70.6;;
68224;SDS011;57497;43.322;21.932;2023-11-19T17:25:33;134.7;;;74.1;;
68224;SDS011;57497;43.322;21.932;2023-11-19T17:30:34;182.6;;;91.9;;
68224;SDS011;57497;43.322;21.932;2023-11-19T17:35:33;251.4;;;128.4;;
68224;SDS011;57497;43.322;21.932;2023-11-19T17:40:33;273.6;;;133.1;;
68224;SDS011;57497;43.322;21.932;2023-11-19T17:45:33;271.9;;;143.5;;
68224;SDS011;57497;43.322;21.932;2023-11-19T17:50:33;271.9;;;130.8;;
68224;SDS011;57497;43.322;21.932;2023-11-19T17:55:34;212.3;;;108.7;;
68224;SDS011;57497;43.322;21.932;2023-11-19T18:00:35;146.1;;;72.8;;
68224;SDS011;57497;43.322;21.932;2023-11-19T18:05:33;115;;;60.1;;
68224;SDS011;57497;43.322;21.932;2023-11-19T18:10:33;94.4;;;48.7;;
68224;SDS011;57497;43.322;21.932;2023-11-19T18:15:34;115.6;;;55.3;;
68224;SDS011;57497;43.322;21.932;2023-11-19T18:20:33;126.2;;;62.1;;
68224;SDS011;57497;43.322;21.932;2023-11-19T18:25:33;104.6;;;61.1;;
68224;SDS011;57497;43.322;21.932;2023-11-19T18:30:33;110;;;55.8;;
68224;SDS011;57497;43.322;21.932;2023-11-19T18:35:33;110.7;;;56.5;;
68224;SDS011;57497;43.322;21.932;2023-11-19T18:40:33;153.2;;;85;;
68224;SDS011;57497;43.322;21.932;2023-11-19T18:45:33;129.9;;;69.9;;
68224;SDS011;57497;43.322;21.932;2023-11-19T18:50:33;155.1;;;78.3;;
68224;SDS011;57497;43.322;21.932;2023-11-19T18:55:34;181.6;;;93.4;;
68224;SDS011;57497;43.322;21.932;2023-11-19T19:00:35;140.6;;;67.9;;
68224;SDS011;57497;43.322;21.932;2023-11-19T19:05:33;69.5;;;43.3;;
68224;SDS011;57497;43.322;21.932;2023-11-19T19:10:33;75.9;;;42;;
68224;SDS011;57497;43.322;21.932;2023-11-19T19:15:33;73.2;;;41.2;;
68224;SDS011;57497;43.322;21.932;2023-11-19T19:20:33;79.3;;;42.8;;
68224;SDS011;57497;43.322;21.932;2023-11-19T19:25:33;105.6;;;56.2;;
68224;SDS011;57497;43.322;21.932;2023-11-19T19:30:33;106.6;;;52;;
68224;SDS011;57497;43.322;21.932;2023-11-19T19:35:33;93.5;;;51.6;;
68224;SDS011;57497;43.322;21.932;2023-11-19T19:40:33;106;;;55.8;;
68224;SDS011;57497;43.322;21.932;2023-11-19T19:45:33;165.9;;;81.7;;
68224;SDS011;57497;43.322;21.932;2023-11-19T19:50:33;164.8;;;79;;
68224;SDS011;57497;43.322;21.932;2023-11-19T19:55:33;152.7;;;75.1;;
68224;SDS011;57497;43.322;21.932;2023-11-19T20:00:35;164.4;;;70.5;;
68224;SDS011;57497;43.322;21.932;2023-11-19T20:05:33;163.4;;;77.9;;
68224;SDS011;57497;43.322;21.932;2023-11-19T20:10:34;171.8;;;76.6;;
68224;SDS011;57497;43.322;21.932;2023-11-19T20:15:33;173.7;;;86.3;;
68224;SDS011;57497;43.322;21.932;2023-11-19T20:20:33;156.9;;;81.8;;
68224;SDS011;57497;43.322;21.932;2023-11-19T20:25:33;150.1;;;81.2;;
68224;SDS011;57497;43.322;21.932;2023-11-19T20:30:33;173.5;;;75.3;;
68224;SDS011;57497;43.322;21.932;2023-11-19T20:35:33;70.6;;;44.4;;
68224;SDS011;57497;43.322;21.932;2023-11-19T20:40:33;60.2;;;30.2;;
68224;SDS011;57497;43.322;21.932;2023-11-19T20:45:33;38.6;;;23.6;;
68224;SDS011;57497;43.322;21.932;2023-11-19T20:50:34;56.7;;;32.1;;
68224;SDS011;57497;43.322;21.932;2023-11-19T20:55:33;53;;;29;;
68224;SDS011;57497;43.322;21.932;2023-11-19T21:00:35;47.3;;;28.3;;
68224;SDS011;57497;43.322;21.932;2023-11-19T21:05:33;45.1;;;27.6;;
68224;SDS011;57497;43.322;21.932;2023-11-19T21:10:33;49.2;;;32.8;;
68224;SDS011;57497;43.322;21.932;2023-11-19T21:15:33;71.6;;;43.2;;
68224;SDS011;57497;43.322;21.932;2023-11-19T21:20:33;98.2;;;48.2;;
68224;SDS011;57497;43.322;21.932;2023-11-19T21:25:33;127.4;;;67.2;;
68224;SDS011;57497;43.322;21.932;2023-11-19T21:30:33;103.9;;;51.6;;
68224;SDS011;57497;43.322;21.932;2023-11-19T21:35:33;112.9;;;56;;
68224;SDS011;57497;43.322;21.932;2023-11-19T21:40:33;137.1;;;74.5;;
68224;SDS011;57497;43.322;21.932;2023-11-19T21:45:33;122.6;;;62;;
68224;SDS011;57497;43.322;21.932;2023-11-19T21:50:33;102.8;;;55.2;;
68224;SDS011;57497;43.322;21.932;2023-11-19T21:55:33;68.8;;;41.2;;
68224;SDS011;57497;43.322;21.932;2023-11-19T22:00:35;77.8;;;44.1;;
68224;SDS011;57497;43.322;21.932;2023-11-19T22:05:33;104.5;;;51.5;;
68224;SDS011;57497;43.322;21.932;2023-11-19T22:10:33;126.7;;;62.8;;
68224;SDS011;57497;43.322;21.932;2023-11-19T22:15:33;133.4;;;64.7;;
68224;SDS011;57497;43.322;21.932;2023-11-19T22:20:33;100.3;;;59.9;;
68224;SDS011;57497;43.322;21.932;2023-11-19T22:25:33;141.4;;;65.1;;
68224;SDS011;57497;43.322;21.932;2023-11-19T22:30:33;130.5;;;63;;
68224;SDS011;57497;43.322;21.932;2023-11-19T22:35:33;124;;;64.6;;
68224;SDS011;57497;43.322;21.932;2023-11-19T22:40:33;150;;;86.7;;
68224;SDS011;57497;43.322;21.932;2023-11-19T22:45:34;205.8;;;108;;
68224;SDS011;57497;43.322;21.932;2023-11-19T22:50:33;216.3;;;98.5;;
68224;SDS011;57497;43.322;21.932;2023-11-19T22:55:33;167.3;;;79.7;;
68224;SDS011;57497;43.322;21.932;2023-11-19T23:00:34;112.4;;;56.3;;
68224;SDS011;57497;43.322;21.932;2023-11-19T23:05:33;75.4;;;44.9;;
68224;SDS011;57497;43.322;21.932;2023-11-19T23:10:33;92.2;;;39.3;;
68224;SDS011;57497;43.322;21.932;2023-11-19T23:15:33;53.9;;;29.1;;
68224;SDS011;57497;43.322;21.932;2023-11-19T23:20:33;44.4;;;27.4;;
68224;SDS011;57497;43.322;21.932;2023-11-19T23:25:33;46.3;;;24.9;;
68224;SDS011;57497;43.322;21.932;2023-11-19T23:30:33;61.3;;;31.9;;
68224;SDS011;57497;43.322;21.932;2023-11-19T23:35:33;63;;;38;;
68224;SDS011;57497;43.322;21.932;2023-11-19T23:40:33;60.4;;;32.1;;
68224;SDS011;57497;43.322;21.932;2023-11-19T23:45:33;79.3;;;39.4;;
68224;SDS011;57497;43.322;21.932;2023-11-19T23:50:33;42.3;;;26.6;;
68224;SDS011;57497;43.322;21.932;2023-11-19T23:55:33;57.4;;;32.1;;
